createdAt,value
2017-11-17T00:01:43.355Z,7.80
2017-11-17T00:04:22.996Z,7.80
2017-11-17T00:07:02.943Z,7.90
2017-11-17T00:09:44.361Z,7.90
2017-11-17T00:12:24.056Z,8.00
2017-11-17T00:15:04.607Z,8.00
2017-11-17T00:17:45.666Z,8.10
2017-11-17T00:20:26.122Z,8.20
2017-11-17T00:23:11.437Z,8.20
2017-11-17T00:25:52.104Z,8.20
2017-11-17T00:28:31.810Z,8.20
2017-11-17T00:31:13.768Z,8.20
2017-11-17T00:33:54.714Z,8.20
2017-11-17T00:36:35.849Z,8.20
2017-11-17T00:39:18.155Z,8.30
2017-11-17T00:42:00.500Z,8.20
2017-11-17T00:44:41.933Z,8.20
2017-11-17T00:47:26.767Z,8.20
2017-11-17T00:50:09.995Z,8.10
2017-11-17T00:52:53.613Z,8.20
2017-11-17T00:55:33.561Z,8.20
2017-11-17T00:58:16.417Z,8.10
2017-11-17T01:01:01.549Z,8.10
2017-11-17T01:03:44.918Z,8.20
2017-11-17T01:06:25.748Z,8.20
2017-11-17T01:09:08.366Z,8.10
2017-11-17T01:11:50.426Z,8.00
2017-11-17T01:14:42.212Z,8.10
2017-11-17T01:17:26.425Z,8.10
2017-11-17T01:20:05.817Z,8.00
2017-11-17T01:22:45.642Z,8.10
2017-11-17T01:25:26.392Z,8.10
2017-11-17T01:28:07.315Z,8.20
2017-11-17T01:30:48.597Z,8.10
2017-11-17T01:33:33.616Z,8.10
2017-11-17T01:36:14.689Z,8.00
2017-11-17T01:38:58.330Z,7.90
2017-11-17T01:41:38.053Z,7.90
2017-11-17T01:44:19.586Z,7.90
2017-11-17T01:47:04.478Z,7.80
2017-11-17T01:49:44.367Z,7.70
2017-11-17T01:52:25.700Z,7.70
2017-11-17T01:55:08.459Z,7.60
2017-11-17T01:57:50.905Z,7.60
2017-11-17T02:00:31.809Z,7.60
2017-11-17T02:03:15.380Z,7.70
2017-11-17T02:05:55.996Z,7.60
2017-11-17T02:08:43.401Z,7.60
2017-11-17T02:11:24.067Z,7.60
2017-11-17T02:14:04.500Z,7.50
2017-11-17T02:16:45.006Z,7.50
2017-11-17T02:19:42.140Z,7.60
2017-11-17T02:22:22.859Z,7.70
2017-11-17T02:25:04.127Z,7.60
2017-11-17T02:27:51.343Z,7.60
2017-11-17T02:30:32.829Z,7.60
2017-11-17T02:43:52.026Z,7.70
2017-11-17T02:46:42.370Z,7.60
2017-11-17T02:49:25.642Z,7.60
2017-11-17T02:52:05.448Z,7.50
2017-11-17T02:54:46.458Z,7.50
2017-11-17T02:57:27.248Z,7.50
2017-11-17T03:00:13.695Z,7.50
2017-11-17T03:02:55.356Z,7.50
2017-11-17T03:05:37.804Z,7.50
2017-11-17T03:08:30.451Z,7.40
2017-11-17T03:11:10.387Z,7.40
2017-11-17T03:13:53.991Z,7.40
2017-11-17T03:16:33.986Z,7.50
2017-11-17T03:19:17.820Z,7.40
2017-11-17T03:21:59.164Z,7.30
2017-11-17T03:24:41.286Z,7.50
2017-11-17T03:27:28.443Z,7.40
2017-11-17T03:30:08.830Z,7.30
2017-11-17T03:35:42.321Z,7.20
2017-11-17T03:38:22.944Z,7.20
2017-11-17T03:41:03.192Z,7.20
2017-11-17T03:43:45.448Z,7.20
2017-11-17T03:46:31.218Z,7.20
2017-11-17T03:49:11.327Z,7.00
2017-11-17T03:51:51.603Z,7.00
2017-11-17T03:54:31.348Z,6.90
2017-11-17T03:57:11.039Z,6.90
2017-11-17T03:59:51.218Z,6.80
2017-11-17T04:02:32.676Z,6.70
2017-11-17T04:05:22.046Z,6.60
2017-11-17T04:08:03.781Z,6.50
2017-11-17T04:10:44.215Z,6.30
2017-11-17T04:13:25.163Z,6.10
2017-11-17T04:16:06.385Z,6.00
2017-11-17T04:18:47.166Z,6.00
2017-11-17T04:21:31.901Z,6.00
2017-11-17T04:24:12.709Z,6.00
2017-11-17T04:26:52.573Z,6.00
2017-11-17T04:29:44.344Z,5.90
2017-11-17T04:32:30.880Z,5.90
2017-11-17T04:35:17.599Z,5.80
2017-11-17T04:38:05.993Z,5.70
2017-11-17T04:40:51.331Z,5.60
2017-11-17T04:43:33.383Z,5.80
2017-11-17T04:46:15.855Z,5.90
2017-11-17T04:49:00.596Z,6.00
2017-11-17T04:52:01.123Z,5.80
2017-11-17T04:54:43.051Z,5.70
2017-11-17T05:00:13.868Z,5.60
2017-11-17T05:02:54.432Z,5.70
2017-11-17T05:05:35.614Z,5.90
2017-11-17T05:08:17.611Z,6.00
2017-11-17T05:10:57.471Z,6.00
2017-11-17T05:13:37.979Z,6.00
2017-11-17T05:16:17.711Z,5.90
2017-11-17T05:19:01.441Z,5.90
2017-11-17T05:21:41.449Z,5.80
2017-11-17T05:24:23.250Z,5.70
2017-11-17T05:27:15.603Z,5.70
2017-11-17T05:29:56.414Z,5.80
2017-11-17T05:32:38.203Z,5.80
2017-11-17T05:35:26.974Z,5.80
2017-11-17T05:38:08.379Z,5.60
2017-11-17T05:40:49.548Z,5.60
2017-11-17T05:43:30.782Z,5.50
2017-11-17T05:46:14.727Z,5.50
2017-11-17T05:52:00.793Z,5.40
2017-11-17T05:54:42.958Z,5.40
2017-11-17T05:57:24.703Z,5.40
2017-11-17T06:00:08.365Z,5.30
2017-11-17T06:02:50.611Z,5.20
2017-11-17T06:05:46.145Z,5.20
2017-11-17T06:08:30.806Z,5.20
2017-11-17T06:11:12.296Z,5.20
2017-11-17T06:13:54.827Z,5.20
2017-11-17T06:16:39.299Z,5.10
2017-11-17T06:19:19.573Z,4.90
2017-11-17T06:22:14.041Z,4.90
2017-11-17T06:24:53.891Z,5.00
2017-11-17T06:27:33.747Z,5.00
2017-11-17T06:30:21.477Z,4.90
2017-11-17T06:33:04.675Z,4.90
2017-11-17T06:35:51.057Z,4.80
2017-11-17T06:38:31.001Z,4.90
2017-11-17T06:41:25.695Z,4.90
2017-11-17T06:44:10.087Z,4.90
2017-11-17T06:47:02.680Z,4.90
2017-11-17T06:49:46.235Z,4.90
2017-11-17T06:52:30.799Z,4.90
2017-11-17T06:55:10.782Z,4.90
2017-11-17T06:57:54.072Z,4.80
2017-11-17T07:00:53.644Z,4.80
2017-11-17T07:03:44.692Z,4.80
2017-11-17T07:06:27.219Z,4.90
2017-11-17T07:10:53.823Z,4.80
2017-11-17T07:13:49.193Z,4.80
2017-11-17T07:16:32.214Z,4.90
2017-11-17T07:19:23.320Z,4.90
2017-11-17T07:22:16.361Z,4.90
2017-11-17T07:24:57.802Z,5.00
2017-11-17T07:27:41.178Z,4.90
2017-11-17T07:30:24.833Z,4.90
2017-11-17T07:33:06.818Z,4.90
2017-11-17T07:35:52.408Z,4.90
2017-11-17T07:38:33.321Z,4.90
2017-11-17T07:41:14.182Z,4.90
2017-11-17T07:43:55.947Z,5.00
2017-11-17T07:46:40.995Z,5.10
2017-11-17T07:49:23.789Z,5.20
2017-11-17T07:52:07.246Z,5.30
2017-11-17T07:55:24.353Z,5.30
2017-11-17T07:59:13.710Z,5.30
2017-11-17T08:04:12.181Z,5.40
2017-11-17T08:06:39.517Z,5.60
2017-11-17T08:09:07.008Z,5.70
2017-11-17T08:11:33.666Z,5.70
2017-11-17T08:14:00.701Z,5.80
2017-11-17T08:16:27.484Z,5.80
2017-11-17T08:18:54.345Z,5.90
2017-11-17T08:21:21.500Z,6.00
2017-11-17T08:23:48.300Z,6.00
2017-11-17T08:26:15.023Z,6.10
2017-11-17T08:28:42.587Z,6.10
2017-11-17T08:31:09.322Z,6.10
2017-11-17T08:33:37.215Z,6.10
2017-11-17T08:36:04.131Z,6.10
2017-11-17T08:38:30.818Z,6.20
2017-11-17T08:40:57.672Z,6.20
2017-11-17T08:43:24.404Z,6.30
2017-11-17T08:45:51.621Z,6.30
2017-11-17T08:48:19.244Z,6.40
2017-11-17T08:50:46.113Z,6.40
2017-11-17T08:53:12.755Z,6.50
2017-11-17T08:55:39.955Z,6.50
2017-11-17T09:01:41.422Z,6.60
2017-11-17T09:04:08.011Z,6.60
2017-11-17T09:06:34.560Z,6.70
2017-11-17T09:09:01.166Z,6.70
2017-11-17T09:11:27.721Z,6.80
2017-11-17T09:13:54.278Z,6.80
2017-11-17T09:18:33.999Z,6.90
2017-11-17T09:21:00.692Z,6.90
2017-11-17T09:23:27.348Z,6.90
2017-11-17T09:25:54.144Z,7.00
2017-11-17T09:28:21.358Z,7.00
2017-11-17T09:30:49.195Z,7.00
2017-11-17T09:33:16.691Z,7.10
2017-11-17T09:35:44.321Z,7.00
2017-11-17T09:38:13.711Z,7.10
2017-11-17T09:40:40.714Z,7.00
2017-11-17T09:43:07.952Z,7.10
2017-11-17T09:45:38.162Z,7.20
2017-11-17T09:48:06.392Z,7.20
2017-11-17T09:50:34.242Z,7.20
2017-11-17T09:53:01.020Z,7.30
2017-11-17T09:55:29.629Z,7.40
2017-11-17T09:57:57.761Z,7.50
2017-11-17T10:00:25.025Z,7.60
2017-11-17T10:02:51.796Z,7.70
2017-11-17T10:05:19.195Z,7.80
2017-11-17T10:07:47.800Z,7.80
2017-11-17T10:10:14.473Z,7.80
2017-11-17T10:12:41.289Z,7.90
2017-11-17T10:15:08.431Z,7.90
2017-11-17T10:17:35.199Z,7.90
2017-11-17T10:20:03.036Z,8.00
2017-11-17T10:22:29.777Z,8.10
2017-11-17T10:24:56.641Z,8.10
2017-11-17T10:27:24.223Z,8.10
2017-11-17T10:29:51.004Z,8.20
2017-11-17T10:32:18.129Z,8.20
2017-11-17T10:34:45.010Z,8.20
2017-11-17T10:37:12.521Z,8.30
2017-11-17T10:39:40.314Z,8.30
2017-11-17T10:42:07.072Z,8.40
2017-11-17T10:44:34.354Z,8.40
2017-11-17T10:47:01.237Z,8.60
2017-11-17T10:49:29.049Z,8.60
2017-11-17T10:51:55.745Z,8.60
2017-11-17T10:54:22.441Z,8.70
2017-11-17T10:56:49.102Z,8.70
2017-11-17T10:59:17.847Z,8.70
2017-11-17T11:01:44.974Z,8.80
2017-11-17T11:04:13.527Z,8.90
2017-11-17T11:06:40.164Z,8.90
2017-11-17T11:09:07.717Z,9.00
2017-11-17T11:11:41.150Z,9.00
2017-11-17T11:14:08.618Z,9.10
2017-11-17T11:16:35.322Z,9.00
2017-11-17T11:19:02.064Z,9.10
2017-11-17T11:21:29.494Z,9.20
2017-11-17T11:23:56.239Z,9.20
2017-11-17T11:26:24.082Z,9.10
2017-11-17T11:28:50.796Z,9.10
2017-11-17T11:31:18.621Z,8.90
2017-11-17T11:33:47.069Z,8.90
2017-11-17T11:36:17.961Z,9.00
2017-11-17T11:38:46.424Z,9.10
2017-11-17T11:41:13.226Z,9.00
2017-11-17T11:43:40.003Z,9.00
2017-11-17T11:46:06.720Z,9.10
2017-11-17T11:48:33.877Z,9.20
2017-11-17T11:51:01.345Z,9.30
2017-11-17T11:53:28.205Z,9.20
2017-11-17T11:55:55.411Z,9.20
2017-11-17T11:58:23.214Z,9.20
2017-11-17T12:00:51.235Z,9.10
2017-11-17T12:03:17.912Z,9.00
2017-11-17T12:05:45.350Z,9.10
2017-11-17T12:08:12.230Z,9.10
2017-11-17T12:10:39.035Z,9.10
2017-11-17T12:13:06.963Z,9.10
2017-11-17T12:15:34.563Z,9.30
2017-11-17T12:18:02.323Z,9.50
2017-11-17T12:20:29.359Z,9.90
2017-11-17T12:22:56.301Z,10.10
2017-11-17T12:25:23.079Z,10.40
2017-11-17T12:27:49.870Z,10.90
2017-11-17T12:30:16.734Z,11.10
2017-11-17T12:32:43.500Z,11.40
2017-11-17T12:35:11.637Z,11.50
2017-11-17T12:37:38.276Z,11.80
2017-11-17T12:40:04.998Z,12.40
2017-11-17T12:42:32.911Z,12.60
2017-11-17T12:45:00.081Z,12.70
2017-11-17T12:47:27.417Z,12.30
2017-11-17T12:49:54.219Z,12.60
2017-11-17T12:52:21.165Z,12.50
2017-11-17T12:54:49.052Z,12.80
2017-11-17T12:57:16.673Z,13.30
2017-11-17T12:59:44.353Z,13.40
2017-11-17T13:02:12.307Z,13.40
2017-11-17T13:04:39.588Z,13.70
2017-11-17T13:07:07.263Z,13.40
2017-11-17T13:09:35.183Z,13.40
2017-11-17T13:12:01.910Z,13.80
2017-11-17T13:14:29.072Z,13.70
2017-11-17T13:16:57.503Z,12.60
2017-11-17T13:19:24.997Z,12.60
2017-11-17T13:21:52.932Z,12.30
2017-11-17T13:24:20.592Z,12.20
2017-11-17T13:26:47.843Z,12.60
2017-11-17T13:29:15.218Z,12.00
2017-11-17T13:31:41.924Z,12.20
2017-11-17T13:34:08.926Z,12.40
2017-11-17T13:36:35.650Z,12.00
2017-11-17T13:39:02.542Z,12.30
2017-11-17T13:41:30.005Z,12.30
2017-11-17T13:43:56.929Z,12.30
2017-11-17T13:46:23.669Z,12.00
2017-11-17T13:48:50.979Z,12.10
2017-11-17T13:51:18.931Z,11.20
2017-11-17T13:53:46.788Z,10.30
2017-11-17T13:56:15.247Z,10.50
2017-11-17T13:58:42.868Z,10.50
2017-11-17T14:01:11.459Z,10.50
2017-11-17T14:03:38.699Z,10.00
2017-11-17T14:06:06.189Z,9.80
2017-11-17T14:08:33.856Z,10.60
2017-11-17T14:11:01.067Z,11.10
2017-11-17T14:13:29.761Z,10.60
2017-11-17T14:15:58.312Z,9.90
2017-11-17T14:18:26.133Z,9.60
2017-11-17T14:20:53.476Z,9.30
2017-11-17T14:23:21.068Z,9.10
2017-11-17T14:39:00.672Z,8.40
2017-11-17T14:51:46.149Z,7.90
2017-11-17T14:59:20.817Z,7.50
2017-11-17T15:40:03.189Z,7.10
2017-11-17T16:33:33.452Z,7.40
2017-11-17T16:36:00.963Z,7.30
2017-11-17T16:38:28.784Z,7.30
2017-11-17T16:40:55.982Z,7.20
2017-11-17T16:43:23.685Z,7.20
2017-11-17T16:45:52.257Z,7.10
2017-11-17T16:48:19.568Z,7.10
2017-11-17T16:50:46.450Z,7.00
2017-11-17T16:53:14.336Z,6.80
2017-11-17T16:55:41.834Z,6.70
2017-11-17T16:58:10.594Z,6.80
2017-11-17T17:00:38.503Z,6.70
2017-11-17T17:03:11.410Z,6.60
2017-11-17T17:05:38.760Z,6.60
2017-11-17T17:08:05.809Z,6.60
2017-11-17T17:10:34.132Z,6.50
2017-11-17T17:13:00.959Z,6.50
2017-11-17T17:15:27.845Z,6.50
2017-11-17T17:17:54.712Z,6.50
2017-11-17T17:20:21.920Z,6.30
2017-11-17T17:22:48.878Z,6.30
2017-11-17T17:25:15.851Z,6.40
2017-11-17T17:27:42.712Z,6.40
2017-11-17T17:30:10.335Z,6.50
2017-11-17T17:32:37.218Z,6.50
2017-11-17T17:35:03.971Z,6.60
2017-11-17T17:37:30.657Z,6.60
2017-11-17T17:39:57.351Z,6.50
2017-11-17T17:42:24.030Z,6.50
2017-11-17T17:44:51.410Z,6.40
2017-11-17T17:47:18.222Z,6.30
2017-11-17T17:49:45.017Z,6.30
2017-11-17T17:52:11.813Z,6.20
2017-11-17T17:54:39.046Z,6.20
2017-11-17T17:57:05.869Z,6.00
2017-11-17T17:59:32.614Z,5.90
2017-11-17T18:02:00.624Z,6.00
2017-11-17T18:04:27.343Z,5.90
2017-11-17T18:06:54.836Z,5.90
2017-11-17T18:09:22.844Z,5.90
2017-11-17T18:11:49.733Z,5.90
2017-11-17T18:14:16.539Z,6.00
2017-11-17T18:16:43.974Z,5.90
2017-11-17T18:19:10.612Z,5.90
2017-11-17T18:21:38.132Z,5.90
2017-11-17T18:24:04.826Z,5.90
2017-11-17T18:26:32.477Z,6.10
2017-11-17T18:28:59.174Z,6.00
2017-11-17T18:31:25.923Z,6.10
2017-11-17T18:33:52.693Z,6.10
2017-11-17T18:36:20.709Z,6.10
2017-11-17T18:38:47.591Z,6.10
2017-11-17T18:41:14.608Z,6.10
2017-11-17T18:43:41.939Z,6.10
2017-11-17T18:46:09.869Z,6.00
2017-11-17T18:48:36.609Z,6.00
2017-11-17T18:51:03.522Z,6.00
2017-11-17T18:53:30.514Z,6.10
2017-11-17T18:55:58.163Z,6.00
2017-11-17T18:58:25.212Z,6.00
2017-11-17T19:00:52.133Z,5.90
2017-11-17T19:03:19.658Z,5.70
2017-11-17T19:05:47.130Z,5.80
2017-11-17T19:08:13.825Z,5.70
2017-11-17T19:10:41.074Z,5.70
2017-11-17T19:13:08.024Z,5.70
2017-11-17T19:15:35.063Z,5.80
2017-11-17T19:18:03.801Z,5.70
2017-11-17T19:20:32.054Z,5.70
2017-11-17T19:23:00.830Z,5.70
2017-11-17T19:25:28.621Z,5.60
2017-11-17T19:27:56.268Z,5.50
2017-11-17T19:30:23.713Z,5.60
2017-11-17T19:32:50.454Z,5.60
2017-11-17T19:35:17.058Z,5.60
2017-11-17T19:37:43.704Z,5.60
2017-11-17T19:40:10.377Z,5.60
2017-11-17T19:42:36.974Z,5.70
2017-11-17T19:45:04.819Z,5.90
2017-11-17T19:47:31.455Z,5.80
2017-11-17T19:49:58.176Z,6.00
2017-11-17T19:52:25.094Z,6.10
2017-11-17T19:54:52.173Z,6.20
2017-11-17T19:57:19.054Z,6.20
2017-11-17T19:59:46.060Z,6.20
2017-11-17T20:02:12.686Z,6.30
2017-11-17T20:04:39.403Z,6.30
2017-11-17T20:07:06.982Z,6.30
2017-11-17T20:09:33.722Z,6.20
2017-11-17T20:12:00.713Z,6.20
2017-11-17T20:14:28.466Z,6.20
2017-11-17T20:16:55.112Z,6.10
2017-11-17T20:19:21.960Z,6.10
2017-11-17T20:21:48.761Z,6.10
2017-11-17T20:24:15.397Z,6.10
2017-11-17T20:26:42.137Z,6.10
2017-11-17T20:29:09.077Z,6.10
2017-11-17T20:31:37.455Z,6.00
2017-11-17T20:34:04.594Z,6.00
2017-11-17T20:36:31.257Z,6.10
2017-11-17T20:38:58.692Z,6.00
2017-11-17T20:41:26.324Z,6.10
2017-11-17T20:43:53.681Z,6.10
2017-11-17T20:46:20.263Z,6.10
2017-11-17T20:48:46.795Z,6.10
2017-11-17T20:51:13.424Z,6.10
2017-11-17T20:53:40.874Z,6.00
2017-11-17T20:56:07.514Z,6.00
2017-11-17T20:58:34.142Z,6.00
2017-11-17T21:01:00.826Z,5.90
2017-11-17T21:03:27.470Z,5.90
2017-11-17T21:05:54.106Z,5.90
2017-11-17T21:08:21.754Z,5.90
2017-11-17T21:10:48.287Z,5.90
2017-11-17T21:13:15.598Z,6.00
2017-11-17T21:15:42.919Z,6.00
2017-11-17T21:18:09.603Z,5.90
2017-11-17T21:20:37.313Z,6.10
2017-11-17T21:23:04.150Z,6.10
2017-11-17T21:25:30.858Z,6.20
2017-11-17T21:27:57.828Z,6.10
2017-11-17T21:30:25.559Z,6.10
2017-11-17T21:32:52.221Z,6.20
2017-11-17T21:35:18.886Z,6.10
2017-11-17T21:37:45.698Z,6.20
2017-11-17T21:40:12.817Z,6.30
2017-11-17T21:42:39.497Z,6.30
2017-11-17T21:45:06.137Z,6.30
2017-11-17T21:47:32.736Z,6.30
2017-11-17T21:50:00.293Z,6.30
2017-11-17T21:52:27.079Z,6.30
2017-11-17T21:54:54.493Z,6.30
2017-11-17T21:57:23.184Z,6.30
2017-11-17T21:59:50.531Z,6.30
2017-11-17T22:02:17.219Z,6.30
2017-11-17T22:04:44.420Z,6.30
2017-11-17T22:07:11.210Z,6.30
2017-11-17T22:09:37.724Z,6.30
2017-11-17T22:12:04.538Z,6.20
2017-11-17T22:14:31.216Z,6.30
2017-11-17T22:16:58.004Z,6.30
2017-11-17T22:19:24.639Z,6.30
2017-11-17T22:21:51.253Z,6.30
2017-11-17T22:24:17.963Z,6.30
2017-11-17T22:26:47.677Z,6.10
2017-11-17T22:29:14.255Z,6.10
2017-11-17T22:31:41.083Z,6.10
2017-11-17T22:34:08.459Z,6.00
2017-11-17T22:36:35.879Z,6.00
2017-11-17T22:39:02.547Z,5.90
2017-11-17T22:41:29.445Z,6.00
2017-11-17T22:43:56.755Z,6.10
2017-11-17T22:46:23.305Z,6.00
2017-11-17T22:48:49.969Z,6.00
2017-11-17T22:51:16.740Z,6.10
2017-11-17T22:53:43.431Z,6.10
2017-11-17T22:56:10.267Z,6.10
2017-11-17T22:58:36.745Z,6.00
2017-11-17T23:01:03.333Z,5.90
2017-11-17T23:03:30.175Z,5.80
2017-11-17T23:05:56.867Z,5.80
2017-11-17T23:08:24.836Z,5.80
2017-11-17T23:10:51.567Z,5.80
2017-11-17T23:13:18.251Z,5.80
2017-11-17T23:15:44.931Z,5.80
2017-11-17T23:18:12.541Z,5.80
2017-11-17T23:20:39.147Z,5.80
2017-11-17T23:23:05.653Z,5.90
2017-11-17T23:25:33.068Z,5.90
2017-11-17T23:27:59.900Z,5.90
2017-11-17T23:30:26.479Z,5.90
2017-11-17T23:32:53.139Z,5.90
2017-11-17T23:35:19.825Z,5.80
2017-11-17T23:37:46.611Z,5.70
2017-11-17T23:40:13.741Z,5.70
2017-11-17T23:42:42.054Z,5.70
2017-11-17T23:45:08.620Z,5.70
2017-11-17T23:47:35.472Z,5.70
2017-11-17T23:50:02.050Z,5.70
2017-11-17T23:52:29.575Z,5.80
2017-11-17T23:54:57.266Z,5.80
2017-11-17T23:57:24.590Z,5.80
2017-11-17T23:59:52.014Z,5.80
